sensor_id;sensor_type;location;lat;lon;timestamp;P1;durP1;ratioP1;P2;durP2;ratioP2
62941;SDS011;49042;47.318;19.874;2022-10-16T00:01:05;8.05;;;5.03;;
62941;SDS011;49042;47.318;19.874;2022-10-16T00:04:08;7.87;;;5.20;;
62941;SDS011;49042;47.318;19.874;2022-10-16T00:07:10;9.20;;;5.95;;
62941;SDS011;49042;47.318;19.874;2022-10-16T00:10:12;14.50;;;6.32;;
62941;SDS011;49042;47.318;19.874;2022-10-16T00:13:16;11.57;;;6.05;;
62941;SDS011;49042;47.318;19.874;2022-10-16T00:16:19;14.35;;;6.50;;
62941;SDS011;49042;47.318;19.874;2022-10-16T00:19:21;13.45;;;6.18;;
62941;SDS011;49042;47.318;19.874;2022-10-16T00:22:23;11.00;;;5.50;;
62941;SDS011;49042;47.318;19.874;2022-10-16T00:25:25;8.73;;;5.50;;
62941;SDS011;49042;47.318;19.874;2022-10-16T00:28:27;11.95;;;4.82;;
62941;SDS011;49042;47.318;19.874;2022-10-16T00:31:29;9.80;;;5.60;;
62941;SDS011;49042;47.318;19.874;2022-10-16T00:34:31;12.77;;;5.60;;
62941;SDS011;49042;47.318;19.874;2022-10-16T00:37:33;10.82;;;5.32;;
62941;SDS011;49042;47.318;19.874;2022-10-16T00:40:35;9.77;;;5.20;;
62941;SDS011;49042;47.318;19.874;2022-10-16T00:46:49;9.73;;;5.50;;
62941;SDS011;49042;47.318;19.874;2022-10-16T00:49:53;11.00;;;5.43;;
62941;SDS011;49042;47.318;19.874;2022-10-16T00:53:00;10.27;;;5.87;;
62941;SDS011;49042;47.318;19.874;2022-10-16T00:56:03;9.52;;;5.93;;
62941;SDS011;49042;47.318;19.874;2022-10-16T00:59:06;12.18;;;5.43;;
62941;SDS011;49042;47.318;19.874;2022-10-16T01:02:15;12.95;;;5.15;;
62941;SDS011;49042;47.318;19.874;2022-10-16T01:05:17;14.90;;;5.47;;
62941;SDS011;49042;47.318;19.874;2022-10-16T01:08:26;10.52;;;5.47;;
62941;SDS011;49042;47.318;19.874;2022-10-16T01:18:32;12.57;;;6.05;;
62941;SDS011;49042;47.318;19.874;2022-10-16T01:21:39;12.73;;;6.28;;
62941;SDS011;49042;47.318;19.874;2022-10-16T01:24:45;9.93;;;5.67;;
62941;SDS011;49042;47.318;19.874;2022-10-16T01:27:50;9.07;;;5.45;;
62941;SDS011;49042;47.318;19.874;2022-10-16T01:30:54;8.52;;;5.07;;
62941;SDS011;49042;47.318;19.874;2022-10-16T01:34:02;10.38;;;5.50;;
62941;SDS011;49042;47.318;19.874;2022-10-16T01:37:12;9.80;;;5.43;;
62941;SDS011;49042;47.318;19.874;2022-10-16T01:40:20;12.27;;;5.93;;
62941;SDS011;49042;47.318;19.874;2022-10-16T01:43:27;12.48;;;5.07;;
62941;SDS011;49042;47.318;19.874;2022-10-16T01:46:36;9.85;;;5.18;;
62941;SDS011;49042;47.318;19.874;2022-10-16T01:49:40;6.32;;;5.15;;
62941;SDS011;49042;47.318;19.874;2022-10-16T01:52:45;9.52;;;5.03;;
62941;SDS011;49042;47.318;19.874;2022-10-16T01:55:49;8.00;;;5.37;;
62941;SDS011;49042;47.318;19.874;2022-10-16T01:59:00;7.07;;;4.78;;
62941;SDS011;49042;47.318;19.874;2022-10-16T02:02:07;8.90;;;4.50;;
62941;SDS011;49042;47.318;19.874;2022-10-16T02:05:18;8.75;;;4.82;;
62941;SDS011;49042;47.318;19.874;2022-10-16T02:08:27;8.43;;;5.30;;
62941;SDS011;49042;47.318;19.874;2022-10-16T02:11:31;8.65;;;4.95;;
62941;SDS011;49042;47.318;19.874;2022-10-16T02:14:33;19.17;;;5.62;;
62941;SDS011;49042;47.318;19.874;2022-10-16T02:17:38;7.28;;;4.90;;
62941;SDS011;49042;47.318;19.874;2022-10-16T02:20:55;12.30;;;5.35;;
62941;SDS011;49042;47.318;19.874;2022-10-16T02:24:11;10.00;;;5.28;;
62941;SDS011;49042;47.318;19.874;2022-10-16T02:27:39;11.38;;;5.87;;
62941;SDS011;49042;47.318;19.874;2022-10-16T02:30:48;12.15;;;5.75;;
62941;SDS011;49042;47.318;19.874;2022-10-16T02:33:52;8.38;;;5.85;;
62941;SDS011;49042;47.318;19.874;2022-10-16T02:36:59;13.30;;;6.03;;
62941;SDS011;49042;47.318;19.874;2022-10-16T02:40:02;18.37;;;7.15;;
62941;SDS011;49042;47.318;19.874;2022-10-16T02:43:06;19.62;;;8.00;;
62941;SDS011;49042;47.318;19.874;2022-10-16T02:46:09;18.75;;;8.68;;
62941;SDS011;49042;47.318;19.874;2022-10-16T02:49:10;24.52;;;7.60;;
62941;SDS011;49042;47.318;19.874;2022-10-16T02:52:12;13.98;;;6.72;;
62941;SDS011;49042;47.318;19.874;2022-10-16T02:55:14;15.00;;;7.15;;
62941;SDS011;49042;47.318;19.874;2022-10-16T02:58:16;15.43;;;7.72;;
62941;SDS011;49042;47.318;19.874;2022-10-16T03:01:18;19.80;;;7.18;;
62941;SDS011;49042;47.318;19.874;2022-10-16T03:04:19;18.83;;;6.95;;
62941;SDS011;49042;47.318;19.874;2022-10-16T03:07:21;12.68;;;6.53;;
62941;SDS011;49042;47.318;19.874;2022-10-16T03:10:24;9.02;;;5.68;;
62941;SDS011;49042;47.318;19.874;2022-10-16T03:13:25;10.88;;;6.30;;
62941;SDS011;49042;47.318;19.874;2022-10-16T03:16:27;13.55;;;6.03;;
62941;SDS011;49042;47.318;19.874;2022-10-16T03:19:29;10.20;;;5.68;;
62941;SDS011;49042;47.318;19.874;2022-10-16T03:22:30;13.20;;;6.47;;
62941;SDS011;49042;47.318;19.874;2022-10-16T03:25:32;11.63;;;5.90;;
62941;SDS011;49042;47.318;19.874;2022-10-16T03:28:34;8.93;;;5.30;;
62941;SDS011;49042;47.318;19.874;2022-10-16T03:31:36;19.80;;;6.05;;
62941;SDS011;49042;47.318;19.874;2022-10-16T03:34:37;10.05;;;5.68;;
62941;SDS011;49042;47.318;19.874;2022-10-16T03:37:39;11.95;;;5.35;;
62941;SDS011;49042;47.318;19.874;2022-10-16T03:40:41;9.52;;;5.80;;
62941;SDS011;49042;47.318;19.874;2022-10-16T03:43:43;12.18;;;5.43;;
62941;SDS011;49042;47.318;19.874;2022-10-16T03:46:45;12.20;;;5.93;;
62941;SDS011;49042;47.318;19.874;2022-10-16T03:49:47;8.57;;;5.25;;
62941;SDS011;49042;47.318;19.874;2022-10-16T03:52:49;18.40;;;5.93;;
62941;SDS011;49042;47.318;19.874;2022-10-16T03:55:51;8.75;;;5.12;;
62941;SDS011;49042;47.318;19.874;2022-10-16T03:58:53;11.68;;;5.65;;
62941;SDS011;49042;47.318;19.874;2022-10-16T04:01:54;10.38;;;5.65;;
62941;SDS011;49042;47.318;19.874;2022-10-16T04:04:56;13.50;;;6.07;;
62941;SDS011;49042;47.318;19.874;2022-10-16T04:07:58;9.55;;;5.78;;
62941;SDS011;49042;47.318;19.874;2022-10-16T04:10:59;10.23;;;5.97;;
62941;SDS011;49042;47.318;19.874;2022-10-16T04:14:02;9.30;;;5.62;;
62941;SDS011;49042;47.318;19.874;2022-10-16T04:17:03;10.88;;;6.03;;
62941;SDS011;49042;47.318;19.874;2022-10-16T04:20:05;8.82;;;5.20;;
62941;SDS011;49042;47.318;19.874;2022-10-16T04:23:07;8.95;;;5.47;;
62941;SDS011;49042;47.318;19.874;2022-10-16T04:26:09;15.63;;;5.55;;
62941;SDS011;49042;47.318;19.874;2022-10-16T04:29:11;9.80;;;5.62;;
62941;SDS011;49042;47.318;19.874;2022-10-16T04:32:13;18.62;;;5.32;;
62941;SDS011;49042;47.318;19.874;2022-10-16T04:35:15;15.25;;;5.82;;
62941;SDS011;49042;47.318;19.874;2022-10-16T04:38:18;11.77;;;5.05;;
62941;SDS011;49042;47.318;19.874;2022-10-16T04:41:19;11.12;;;5.50;;
62941;SDS011;49042;47.318;19.874;2022-10-16T04:44:21;11.52;;;5.35;;
62941;SDS011;49042;47.318;19.874;2022-10-16T04:47:23;10.68;;;5.30;;
62941;SDS011;49042;47.318;19.874;2022-10-16T04:50:25;16.00;;;5.90;;
62941;SDS011;49042;47.318;19.874;2022-10-16T04:53:27;7.90;;;5.75;;
62941;SDS011;49042;47.318;19.874;2022-10-16T04:56:29;10.93;;;5.87;;
62941;SDS011;49042;47.318;19.874;2022-10-16T04:59:31;9.80;;;5.90;;
62941;SDS011;49042;47.318;19.874;2022-10-16T05:02:33;10.15;;;6.20;;
62941;SDS011;49042;47.318;19.874;2022-10-16T05:05:35;10.93;;;6.50;;
62941;SDS011;49042;47.318;19.874;2022-10-16T05:08:37;15.23;;;7.35;;
62941;SDS011;49042;47.318;19.874;2022-10-16T05:11:39;14.30;;;7.68;;
62941;SDS011;49042;47.318;19.874;2022-10-16T05:14:41;10.07;;;7.00;;
62941;SDS011;49042;47.318;19.874;2022-10-16T05:17:42;13.20;;;7.75;;
62941;SDS011;49042;47.318;19.874;2022-10-16T05:20:45;16.80;;;7.80;;
62941;SDS011;49042;47.318;19.874;2022-10-16T05:23:46;13.60;;;7.10;;
62941;SDS011;49042;47.318;19.874;2022-10-16T05:26:49;11.77;;;6.95;;
62941;SDS011;49042;47.318;19.874;2022-10-16T05:29:51;14.07;;;7.57;;
62941;SDS011;49042;47.318;19.874;2022-10-16T05:32:52;14.20;;;7.78;;
62941;SDS011;49042;47.318;19.874;2022-10-16T05:35:54;12.82;;;7.62;;
62941;SDS011;49042;47.318;19.874;2022-10-16T05:38:56;16.42;;;7.72;;
62941;SDS011;49042;47.318;19.874;2022-10-16T05:41:58;19.33;;;7.68;;
62941;SDS011;49042;47.318;19.874;2022-10-16T05:45:00;14.98;;;7.37;;
62941;SDS011;49042;47.318;19.874;2022-10-16T05:48:02;12.43;;;7.65;;
62941;SDS011;49042;47.318;19.874;2022-10-16T05:51:05;15.52;;;7.22;;
62941;SDS011;49042;47.318;19.874;2022-10-16T05:54:08;15.05;;;7.22;;
62941;SDS011;49042;47.318;19.874;2022-10-16T05:57:10;14.90;;;7.70;;
62941;SDS011;49042;47.318;19.874;2022-10-16T06:00:12;11.35;;;6.87;;
62941;SDS011;49042;47.318;19.874;2022-10-16T06:03:14;10.07;;;6.90;;
62941;SDS011;49042;47.318;19.874;2022-10-16T06:06:17;11.10;;;7.25;;
62941;SDS011;49042;47.318;19.874;2022-10-16T06:09:20;14.13;;;7.05;;
62941;SDS011;49042;47.318;19.874;2022-10-16T06:12:22;10.52;;;6.25;;
62941;SDS011;49042;47.318;19.874;2022-10-16T06:15:24;11.95;;;7.72;;
62941;SDS011;49042;47.318;19.874;2022-10-16T06:18:26;12.18;;;7.90;;
62941;SDS011;49042;47.318;19.874;2022-10-16T06:21:28;16.55;;;8.07;;
62941;SDS011;49042;47.318;19.874;2022-10-16T06:24:30;13.77;;;8.50;;
62941;SDS011;49042;47.318;19.874;2022-10-16T06:27:32;16.05;;;7.45;;
62941;SDS011;49042;47.318;19.874;2022-10-16T06:30:34;13.02;;;7.20;;
62941;SDS011;49042;47.318;19.874;2022-10-16T06:33:36;13.32;;;7.32;;
62941;SDS011;49042;47.318;19.874;2022-10-16T06:36:39;11.80;;;7.07;;
62941;SDS011;49042;47.318;19.874;2022-10-16T06:39:42;11.90;;;7.87;;
62941;SDS011;49042;47.318;19.874;2022-10-16T06:42:44;13.43;;;7.37;;
62941;SDS011;49042;47.318;19.874;2022-10-16T06:45:56;13.68;;;8.18;;
62941;SDS011;49042;47.318;19.874;2022-10-16T06:48:58;13.23;;;7.18;;
62941;SDS011;49042;47.318;19.874;2022-10-16T06:52:01;16.50;;;7.43;;
62941;SDS011;49042;47.318;19.874;2022-10-16T06:55:04;19.15;;;7.57;;
62941;SDS011;49042;47.318;19.874;2022-10-16T06:58:06;11.77;;;7.40;;
62941;SDS011;49042;47.318;19.874;2022-10-16T07:01:11;15.98;;;7.60;;
62941;SDS011;49042;47.318;19.874;2022-10-16T07:04:13;10.68;;;7.62;;
62941;SDS011;49042;47.318;19.874;2022-10-16T07:07:15;12.77;;;7.50;;
62941;SDS011;49042;47.318;19.874;2022-10-16T07:10:17;17.73;;;7.32;;
62941;SDS011;49042;47.318;19.874;2022-10-16T07:13:19;12.95;;;6.25;;
62941;SDS011;49042;47.318;19.874;2022-10-16T07:16:22;12.25;;;6.28;;
62941;SDS011;49042;47.318;19.874;2022-10-16T07:19:28;11.25;;;5.87;;
62941;SDS011;49042;47.318;19.874;2022-10-16T07:22:34;12.73;;;6.20;;
62941;SDS011;49042;47.318;19.874;2022-10-16T07:25:36;9.05;;;5.53;;
62941;SDS011;49042;47.318;19.874;2022-10-16T07:28:38;9.55;;;5.55;;
62941;SDS011;49042;47.318;19.874;2022-10-16T07:31:41;11.77;;;5.68;;
62941;SDS011;49042;47.318;19.874;2022-10-16T07:34:44;13.80;;;6.00;;
62941;SDS011;49042;47.318;19.874;2022-10-16T07:37:47;16.45;;;5.43;;
62941;SDS011;49042;47.318;19.874;2022-10-16T07:40:55;10.90;;;5.80;;
62941;SDS011;49042;47.318;19.874;2022-10-16T07:43:58;9.35;;;5.32;;
62941;SDS011;49042;47.318;19.874;2022-10-16T07:47:03;22.58;;;5.82;;
62941;SDS011;49042;47.318;19.874;2022-10-16T07:50:05;7.97;;;5.25;;
62941;SDS011;49042;47.318;19.874;2022-10-16T07:53:07;8.80;;;5.07;;
62941;SDS011;49042;47.318;19.874;2022-10-16T07:56:09;9.30;;;4.62;;
62941;SDS011;49042;47.318;19.874;2022-10-16T07:59:13;6.30;;;4.57;;
62941;SDS011;49042;47.318;19.874;2022-10-16T08:02:15;6.78;;;4.28;;
62941;SDS011;49042;47.318;19.874;2022-10-16T08:05:17;12.73;;;5.60;;
62941;SDS011;49042;47.318;19.874;2022-10-16T08:08:19;7.30;;;4.80;;
62941;SDS011;49042;47.318;19.874;2022-10-16T08:11:20;10.27;;;4.95;;
62941;SDS011;49042;47.318;19.874;2022-10-16T08:14:22;7.68;;;5.12;;
62941;SDS011;49042;47.318;19.874;2022-10-16T08:17:24;12.25;;;5.57;;
62941;SDS011;49042;47.318;19.874;2022-10-16T08:20:26;8.95;;;5.18;;
62941;SDS011;49042;47.318;19.874;2022-10-16T08:23:28;10.30;;;5.00;;
62941;SDS011;49042;47.318;19.874;2022-10-16T08:26:30;13.70;;;4.60;;
62941;SDS011;49042;47.318;19.874;2022-10-16T08:29:32;10.10;;;4.87;;
62941;SDS011;49042;47.318;19.874;2022-10-16T08:32:34;16.37;;;5.22;;
62941;SDS011;49042;47.318;19.874;2022-10-16T08:35:35;10.20;;;4.45;;
62941;SDS011;49042;47.318;19.874;2022-10-16T08:38:37;7.90;;;4.35;;
62941;SDS011;49042;47.318;19.874;2022-10-16T08:45:04;13.30;;;4.40;;
62941;SDS011;49042;47.318;19.874;2022-10-16T08:48:30;8.77;;;4.05;;
62941;SDS011;49042;47.318;19.874;2022-10-16T08:51:45;11.35;;;3.78;;
62941;SDS011;49042;47.318;19.874;2022-10-16T08:54:48;9.48;;;4.12;;
62941;SDS011;49042;47.318;19.874;2022-10-16T08:57:55;9.48;;;4.47;;
62941;SDS011;49042;47.318;19.874;2022-10-16T09:00:59;6.65;;;3.40;;
62941;SDS011;49042;47.318;19.874;2022-10-16T09:04:21;6.90;;;3.70;;
62941;SDS011;49042;47.318;19.874;2022-10-16T09:10:55;10.85;;;4.45;;
62941;SDS011;49042;47.318;19.874;2022-10-16T09:19:20;10.88;;;5.37;;
62941;SDS011;49042;47.318;19.874;2022-10-16T09:22:29;13.02;;;3.90;;
62941;SDS011;49042;47.318;19.874;2022-10-16T09:25:33;6.30;;;3.62;;
62941;SDS011;49042;47.318;19.874;2022-10-16T09:28:36;10.27;;;4.15;;
62941;SDS011;49042;47.318;19.874;2022-10-16T09:31:38;7.57;;;3.85;;
62941;SDS011;49042;47.318;19.874;2022-10-16T09:34:42;10.10;;;4.22;;
62941;SDS011;49042;47.318;19.874;2022-10-16T09:37:50;10.13;;;3.80;;
62941;SDS011;49042;47.318;19.874;2022-10-16T09:40:55;6.10;;;3.55;;
62941;SDS011;49042;47.318;19.874;2022-10-16T09:44:03;8.23;;;4.05;;
62941;SDS011;49042;47.318;19.874;2022-10-16T09:47:18;5.45;;;3.70;;
62941;SDS011;49042;47.318;19.874;2022-10-16T09:50:23;9.20;;;4.30;;
62941;SDS011;49042;47.318;19.874;2022-10-16T09:56:43;8.95;;;4.40;;
62941;SDS011;49042;47.318;19.874;2022-10-16T10:02:53;13.40;;;4.30;;
62941;SDS011;49042;47.318;19.874;2022-10-16T10:06:03;6.60;;;4.20;;
62941;SDS011;49042;47.318;19.874;2022-10-16T10:12:32;5.68;;;4.07;;
62941;SDS011;49042;47.318;19.874;2022-10-16T10:15:41;7.30;;;3.90;;
62941;SDS011;49042;47.318;19.874;2022-10-16T10:18:43;8.48;;;3.78;;
62941;SDS011;49042;47.318;19.874;2022-10-16T10:21:44;9.30;;;3.92;;
62941;SDS011;49042;47.318;19.874;2022-10-16T10:28:17;12.75;;;4.12;;
62941;SDS011;49042;47.318;19.874;2022-10-16T10:31:29;9.43;;;3.87;;
62941;SDS011;49042;47.318;19.874;2022-10-16T10:34:39;10.45;;;4.30;;
62941;SDS011;49042;47.318;19.874;2022-10-16T10:45:04;6.90;;;4.00;;
62941;SDS011;49042;47.318;19.874;2022-10-16T11:08:17;6.75;;;3.10;;
62941;SDS011;49042;47.318;19.874;2022-10-16T11:11:24;6.28;;;3.65;;
62941;SDS011;49042;47.318;19.874;2022-10-16T11:14:51;7.45;;;3.50;;
62941;SDS011;49042;47.318;19.874;2022-10-16T11:18:00;7.28;;;3.25;;
62941;SDS011;49042;47.318;19.874;2022-10-16T11:21:08;6.65;;;3.40;;
62941;SDS011;49042;47.318;19.874;2022-10-16T11:24:16;5.37;;;3.50;;
62941;SDS011;49042;47.318;19.874;2022-10-16T11:27:33;13.90;;;3.40;;
62941;SDS011;49042;47.318;19.874;2022-10-16T11:30:56;6.75;;;3.42;;
62941;SDS011;49042;47.318;19.874;2022-10-16T11:37:36;8.75;;;3.60;;
62941;SDS011;49042;47.318;19.874;2022-10-16T11:40:42;9.73;;;2.92;;
62941;SDS011;49042;47.318;19.874;2022-10-16T11:44:02;12.13;;;4.30;;
62941;SDS011;49042;47.318;19.874;2022-10-16T11:57:41;4.05;;;3.10;;
62941;SDS011;49042;47.318;19.874;2022-10-16T12:07:39;7.18;;;3.37;;
62941;SDS011;49042;47.318;19.874;2022-10-16T12:11:08;3.85;;;3.15;;
62941;SDS011;49042;47.318;19.874;2022-10-16T12:14:33;7.15;;;3.00;;
62941;SDS011;49042;47.318;19.874;2022-10-16T12:17:58;8.95;;;3.37;;
62941;SDS011;49042;47.318;19.874;2022-10-16T12:21:00;13.50;;;2.90;;
62941;SDS011;49042;47.318;19.874;2022-10-16T12:24:18;7.50;;;2.90;;
62941;SDS011;49042;47.318;19.874;2022-10-16T12:27:42;6.65;;;3.08;;
62941;SDS011;49042;47.318;19.874;2022-10-16T12:30:51;8.23;;;3.08;;
62941;SDS011;49042;47.318;19.874;2022-10-16T12:33:58;8.27;;;3.58;;
62941;SDS011;49042;47.318;19.874;2022-10-16T12:37:36;9.52;;;2.83;;
62941;SDS011;49042;47.318;19.874;2022-10-16T12:40:35;4.68;;;2.85;;
62941;SDS011;49042;47.318;19.874;2022-10-16T12:43:45;5.50;;;3.42;;
62941;SDS011;49042;47.318;19.874;2022-10-16T12:46:48;6.80;;;3.20;;
62941;SDS011;49042;47.318;19.874;2022-10-16T12:49:52;6.75;;;3.37;;
62941;SDS011;49042;47.318;19.874;2022-10-16T12:52:56;9.20;;;3.50;;
62941;SDS011;49042;47.318;19.874;2022-10-16T12:56:03;13.90;;;3.33;;
62941;SDS011;49042;47.318;19.874;2022-10-16T13:06:05;5.03;;;3.03;;
62941;SDS011;49042;47.318;19.874;2022-10-16T13:09:33;7.12;;;3.42;;
62941;SDS011;49042;47.318;19.874;2022-10-16T13:19:30;9.75;;;2.85;;
62941;SDS011;49042;47.318;19.874;2022-10-16T13:22:56;7.90;;;3.58;;
62941;SDS011;49042;47.318;19.874;2022-10-16T13:29:34;6.72;;;3.25;;
62941;SDS011;49042;47.318;19.874;2022-10-16T13:32:36;6.37;;;3.10;;
62941;SDS011;49042;47.318;19.874;2022-10-16T13:35:46;3.72;;;2.67;;
62941;SDS011;49042;47.318;19.874;2022-10-16T13:45:28;4.28;;;3.05;;
62941;SDS011;49042;47.318;19.874;2022-10-16T13:48:32;8.00;;;2.83;;
62941;SDS011;49042;47.318;19.874;2022-10-16T13:51:34;7.85;;;2.75;;
62941;SDS011;49042;47.318;19.874;2022-10-16T13:54:36;4.93;;;2.78;;
62941;SDS011;49042;47.318;19.874;2022-10-16T13:57:38;8.63;;;3.03;;
62941;SDS011;49042;47.318;19.874;2022-10-16T14:00:40;6.87;;;2.55;;
62941;SDS011;49042;47.318;19.874;2022-10-16T14:04:00;4.87;;;2.62;;
62941;SDS011;49042;47.318;19.874;2022-10-16T14:07:04;4.47;;;2.83;;
62941;SDS011;49042;47.318;19.874;2022-10-16T14:10:07;8.93;;;3.12;;
62941;SDS011;49042;47.318;19.874;2022-10-16T14:13:32;5.68;;;3.00;;
62941;SDS011;49042;47.318;19.874;2022-10-16T14:16:40;5.18;;;3.03;;
62941;SDS011;49042;47.318;19.874;2022-10-16T14:19:47;5.75;;;4.05;;
62941;SDS011;49042;47.318;19.874;2022-10-16T14:23:03;8.77;;;3.28;;
62941;SDS011;49042;47.318;19.874;2022-10-16T14:26:29;27.50;;;17.00;;
62941;SDS011;49042;47.318;19.874;2022-10-16T14:29:50;41.20;;;24.90;;
62941;SDS011;49042;47.318;19.874;2022-10-16T14:33:02;12.63;;;5.05;;
62941;SDS011;49042;47.318;19.874;2022-10-16T14:39:17;8.48;;;4.65;;
62941;SDS011;49042;47.318;19.874;2022-10-16T14:42:22;7.85;;;2.85;;
62941;SDS011;49042;47.318;19.874;2022-10-16T14:45:30;5.15;;;3.45;;
62941;SDS011;49042;47.318;19.874;2022-10-16T14:48:33;4.18;;;3.17;;
62941;SDS011;49042;47.318;19.874;2022-10-16T14:51:36;6.50;;;3.00;;
62941;SDS011;49042;47.318;19.874;2022-10-16T14:54:40;8.25;;;3.05;;
62941;SDS011;49042;47.318;19.874;2022-10-16T14:57:42;6.53;;;3.03;;
62941;SDS011;49042;47.318;19.874;2022-10-16T15:00:46;5.45;;;2.87;;
62941;SDS011;49042;47.318;19.874;2022-10-16T15:03:48;5.53;;;2.90;;
62941;SDS011;49042;47.318;19.874;2022-10-16T15:06:50;5.22;;;3.30;;
62941;SDS011;49042;47.318;19.874;2022-10-16T15:09:52;10.07;;;3.67;;
62941;SDS011;49042;47.318;19.874;2022-10-16T15:12:54;10.07;;;3.00;;
62941;SDS011;49042;47.318;19.874;2022-10-16T15:15:56;8.45;;;3.22;;
62941;SDS011;49042;47.318;19.874;2022-10-16T15:18:59;11.32;;;3.47;;
62941;SDS011;49042;47.318;19.874;2022-10-16T15:22:01;13.10;;;4.15;;
62941;SDS011;49042;47.318;19.874;2022-10-16T15:25:08;11.52;;;3.47;;
62941;SDS011;49042;47.318;19.874;2022-10-16T15:28:31;9.90;;;3.55;;
62941;SDS011;49042;47.318;19.874;2022-10-16T15:31:33;5.57;;;3.40;;
62941;SDS011;49042;47.318;19.874;2022-10-16T15:34:35;5.90;;;3.47;;
62941;SDS011;49042;47.318;19.874;2022-10-16T15:37:37;10.73;;;3.50;;
62941;SDS011;49042;47.318;19.874;2022-10-16T15:40:39;23.12;;;4.28;;
62941;SDS011;49042;47.318;19.874;2022-10-16T15:43:41;8.70;;;3.85;;
62941;SDS011;49042;47.318;19.874;2022-10-16T15:46:46;7.43;;;3.47;;
62941;SDS011;49042;47.318;19.874;2022-10-16T15:49:48;5.93;;;3.33;;
62941;SDS011;49042;47.318;19.874;2022-10-16T15:52:50;15.27;;;3.50;;
62941;SDS011;49042;47.318;19.874;2022-10-16T15:55:52;6.03;;;3.37;;
62941;SDS011;49042;47.318;19.874;2022-10-16T15:58:54;13.75;;;4.07;;
62941;SDS011;49042;47.318;19.874;2022-10-16T16:01:57;10.77;;;4.20;;
62941;SDS011;49042;47.318;19.874;2022-10-16T16:04:59;11.23;;;6.10;;
62941;SDS011;49042;47.318;19.874;2022-10-16T16:08:01;30.25;;;10.80;;
62941;SDS011;49042;47.318;19.874;2022-10-16T16:11:10;23.25;;;13.52;;
62941;SDS011;49042;47.318;19.874;2022-10-16T16:14:16;17.60;;;9.07;;
62941;SDS011;49042;47.318;19.874;2022-10-16T16:17:18;14.18;;;7.20;;
62941;SDS011;49042;47.318;19.874;2022-10-16T16:20:19;13.70;;;6.35;;
62941;SDS011;49042;47.318;19.874;2022-10-16T16:23:21;19.80;;;7.93;;
62941;SDS011;49042;47.318;19.874;2022-10-16T16:26:27;22.75;;;8.27;;
62941;SDS011;49042;47.318;19.874;2022-10-16T16:29:35;23.42;;;9.18;;
62941;SDS011;49042;47.318;19.874;2022-10-16T16:32:37;16.25;;;8.23;;
62941;SDS011;49042;47.318;19.874;2022-10-16T16:35:38;19.83;;;9.27;;
62941;SDS011;49042;47.318;19.874;2022-10-16T16:38:41;16.42;;;8.57;;
62941;SDS011;49042;47.318;19.874;2022-10-16T16:41:42;27.35;;;13.45;;
62941;SDS011;49042;47.318;19.874;2022-10-16T16:44:47;45.85;;;23.02;;
62941;SDS011;49042;47.318;19.874;2022-10-16T16:47:49;47.92;;;25.67;;
62941;SDS011;49042;47.318;19.874;2022-10-16T16:50:50;51.15;;;25.30;;
62941;SDS011;49042;47.318;19.874;2022-10-16T16:53:53;44.47;;;23.77;;
62941;SDS011;49042;47.318;19.874;2022-10-16T16:56:55;46.30;;;23.33;;
62941;SDS011;49042;47.318;19.874;2022-10-16T16:59:57;54.13;;;25.23;;
62941;SDS011;49042;47.318;19.874;2022-10-16T17:02:59;51.40;;;24.98;;
62941;SDS011;49042;47.318;19.874;2022-10-16T17:06:02;49.67;;;24.27;;
62941;SDS011;49042;47.318;19.874;2022-10-16T17:09:06;48.10;;;22.48;;
62941;SDS011;49042;47.318;19.874;2022-10-16T17:12:10;44.20;;;21.67;;
62941;SDS011;49042;47.318;19.874;2022-10-16T17:15:13;37.63;;;20.85;;
62941;SDS011;49042;47.318;19.874;2022-10-16T17:18:15;41.67;;;21.52;;
62941;SDS011;49042;47.318;19.874;2022-10-16T17:21:19;49.45;;;24.58;;
62941;SDS011;49042;47.318;19.874;2022-10-16T17:24:22;41.67;;;22.58;;
62941;SDS011;49042;47.318;19.874;2022-10-16T17:27:24;105.07;;;42.62;;
62941;SDS011;49042;47.318;19.874;2022-10-16T17:30:26;63.70;;;29.87;;
62941;SDS011;49042;47.318;19.874;2022-10-16T17:33:29;55.67;;;26.48;;
62941;SDS011;49042;47.318;19.874;2022-10-16T17:36:32;50.97;;;23.83;;
62941;SDS011;49042;47.318;19.874;2022-10-16T17:39:37;50.75;;;25.90;;
62941;SDS011;49042;47.318;19.874;2022-10-16T17:42:39;47.85;;;24.00;;
62941;SDS011;49042;47.318;19.874;2022-10-16T17:45:42;49.13;;;23.73;;
62941;SDS011;49042;47.318;19.874;2022-10-16T17:48:48;40.92;;;24.25;;
62941;SDS011;49042;47.318;19.874;2022-10-16T17:51:53;50.90;;;28.80;;
62941;SDS011;49042;47.318;19.874;2022-10-16T17:54:55;53.38;;;25.40;;
62941;SDS011;49042;47.318;19.874;2022-10-16T17:58:00;51.47;;;24.73;;
62941;SDS011;49042;47.318;19.874;2022-10-16T18:01:10;41.30;;;23.40;;
62941;SDS011;49042;47.318;19.874;2022-10-16T18:04:19;40.97;;;23.25;;
62941;SDS011;49042;47.318;19.874;2022-10-16T18:07:21;37.58;;;21.90;;
62941;SDS011;49042;47.318;19.874;2022-10-16T18:10:31;43.97;;;21.40;;
62941;SDS011;49042;47.318;19.874;2022-10-16T18:13:34;38.15;;;20.35;;
62941;SDS011;49042;47.318;19.874;2022-10-16T18:16:37;42.03;;;21.98;;
62941;SDS011;49042;47.318;19.874;2022-10-16T18:19:40;41.15;;;23.80;;
62941;SDS011;49042;47.318;19.874;2022-10-16T18:22:43;43.90;;;24.02;;
62941;SDS011;49042;47.318;19.874;2022-10-16T18:25:49;36.58;;;23.80;;
62941;SDS011;49042;47.318;19.874;2022-10-16T18:28:57;45.40;;;23.85;;
62941;SDS011;49042;47.318;19.874;2022-10-16T18:32:02;39.65;;;23.73;;
62941;SDS011;49042;47.318;19.874;2022-10-16T18:35:06;40.50;;;23.77;;
62941;SDS011;49042;47.318;19.874;2022-10-16T18:38:09;52.62;;;24.87;;
62941;SDS011;49042;47.318;19.874;2022-10-16T18:41:11;52.65;;;27.33;;
62941;SDS011;49042;47.318;19.874;2022-10-16T18:44:13;50.95;;;26.77;;
62941;SDS011;49042;47.318;19.874;2022-10-16T18:47:16;40.78;;;23.55;;
62941;SDS011;49042;47.318;19.874;2022-10-16T18:50:22;42.62;;;21.92;;
62941;SDS011;49042;47.318;19.874;2022-10-16T18:53:34;39.80;;;24.15;;
62941;SDS011;49042;47.318;19.874;2022-10-16T18:56:38;38.15;;;21.70;;
62941;SDS011;49042;47.318;19.874;2022-10-16T18:59:41;33.03;;;19.95;;
62941;SDS011;49042;47.318;19.874;2022-10-16T19:02:44;34.33;;;18.87;;
62941;SDS011;49042;47.318;19.874;2022-10-16T19:05:48;32.22;;;17.60;;
62941;SDS011;49042;47.318;19.874;2022-10-16T19:08:50;36.85;;;23.42;;
62941;SDS011;49042;47.318;19.874;2022-10-16T19:11:53;42.65;;;25.83;;
62941;SDS011;49042;47.318;19.874;2022-10-16T19:14:55;45.88;;;29.12;;
62941;SDS011;49042;47.318;19.874;2022-10-16T19:17:57;54.78;;;30.35;;
62941;SDS011;49042;47.318;19.874;2022-10-16T19:21:00;44.33;;;25.37;;
62941;SDS011;49042;47.318;19.874;2022-10-16T19:24:04;44.90;;;23.08;;
62941;SDS011;49042;47.318;19.874;2022-10-16T19:27:06;38.72;;;23.12;;
62941;SDS011;49042;47.318;19.874;2022-10-16T19:30:09;33.80;;;20.92;;
62941;SDS011;49042;47.318;19.874;2022-10-16T19:33:11;36.72;;;20.80;;
62941;SDS011;49042;47.318;19.874;2022-10-16T19:36:15;36.95;;;21.75;;
62941;SDS011;49042;47.318;19.874;2022-10-16T19:42:28;44.85;;;21.92;;
62941;SDS011;49042;47.318;19.874;2022-10-16T19:45:30;41.37;;;23.83;;
62941;SDS011;49042;47.318;19.874;2022-10-16T19:48:33;39.78;;;21.23;;
62941;SDS011;49042;47.318;19.874;2022-10-16T19:51:35;33.55;;;20.20;;
62941;SDS011;49042;47.318;19.874;2022-10-16T19:54:37;38.10;;;20.10;;
62941;SDS011;49042;47.318;19.874;2022-10-16T19:57:40;35.53;;;17.67;;